createdAt,value
2023-08-19T00:01:10.517Z,44.20
2023-08-19T00:03:38.271Z,48.03
2023-08-19T00:06:09.903Z,39.97
2023-08-19T00:08:37.659Z,46.10
2023-08-19T00:11:07.252Z,44.65
2023-08-19T00:13:34.345Z,45.17
2023-08-19T00:16:00.814Z,45.80
2023-08-19T00:18:28.631Z,40.92
2023-08-19T00:20:56.497Z,48.40
2023-08-19T00:23:24.645Z,43.40
2023-08-19T00:25:51.344Z,44.60
2023-08-19T00:28:25.224Z,41.50
2023-08-19T00:30:51.787Z,46.63
2023-08-19T00:33:27.036Z,43.47
2023-08-19T00:35:54.909Z,47.17
2023-08-19T00:38:23.747Z,43.97
2023-08-19T00:40:51.752Z,45.88
2023-08-19T00:43:20.728Z,44.42
2023-08-19T00:45:51.244Z,39.65
2023-08-19T00:48:24.175Z,48.38
2023-08-19T00:50:50.773Z,43.20
2023-08-19T00:53:17.601Z,40.17
2023-08-19T00:55:44.452Z,46.17
2023-08-19T00:58:10.997Z,38.80
2023-08-19T01:00:38.687Z,45.03
2023-08-19T01:03:06.495Z,41.60
2023-08-19T01:05:44.753Z,40.47
2023-08-19T01:08:14.120Z,42.08
2023-08-19T01:10:43.944Z,44.72
2023-08-19T01:13:15.789Z,42.72
2023-08-19T01:15:48.520Z,44.20
2023-08-19T01:18:17.640Z,39.63
2023-08-19T01:20:44.282Z,40.28
2023-08-19T01:23:22.827Z,42.92
2023-08-19T01:25:52.292Z,42.00
2023-08-19T01:28:21.855Z,41.07
2023-08-19T01:30:48.493Z,38.25
2023-08-19T01:33:15.621Z,40.80
2023-08-19T01:35:51.206Z,39.90
2023-08-19T01:38:36.371Z,41.38
2023-08-19T01:41:04.320Z,40.67
2023-08-19T01:43:31.848Z,37.65
2023-08-19T01:45:58.964Z,40.58
2023-08-19T01:48:25.558Z,40.72
2023-08-19T01:50:52.417Z,40.47
2023-08-19T01:53:21.282Z,41.13
2023-08-19T01:55:47.945Z,38.45
2023-08-19T01:58:14.718Z,38.92
2023-08-19T02:00:41.301Z,40.53
2023-08-19T02:03:08.536Z,34.45
2023-08-19T02:05:34.977Z,37.27
2023-08-19T02:08:01.472Z,40.10
2023-08-19T02:10:28.042Z,40.38
2023-08-19T02:12:54.647Z,37.30
2023-08-19T02:15:22.803Z,38.72
2023-08-19T02:17:50.632Z,40.60
2023-08-19T02:20:17.194Z,42.70
2023-08-19T02:22:43.680Z,35.45
2023-08-19T02:25:10.589Z,36.83
2023-08-19T02:27:40.332Z,37.95
2023-08-19T02:30:07.174Z,38.00
2023-08-19T02:32:33.734Z,36.10
2023-08-19T02:35:03.419Z,37.97
2023-08-19T02:37:30.238Z,34.92
2023-08-19T02:39:57.163Z,33.10
2023-08-19T02:42:23.552Z,31.37
2023-08-19T02:44:53.339Z,35.95
2023-08-19T02:47:21.188Z,42.25
2023-08-19T02:49:47.633Z,31.67
2023-08-19T02:52:14.561Z,31.70
2023-08-19T02:54:41.430Z,34.60
2023-08-19T02:57:07.884Z,33.53
2023-08-19T02:59:34.291Z,32.17
2023-08-19T03:02:00.860Z,32.88
2023-08-19T03:04:31.062Z,32.83
2023-08-19T03:06:59.320Z,29.60
2023-08-19T03:09:25.785Z,30.52
2023-08-19T03:11:52.191Z,32.38
2023-08-19T03:14:18.728Z,33.85
2023-08-19T03:16:45.317Z,28.60
2023-08-19T03:19:12.588Z,28.97
2023-08-19T03:21:38.997Z,28.92
2023-08-19T03:24:05.731Z,29.20
2023-08-19T03:26:33.273Z,44.75
2023-08-19T03:28:59.912Z,30.42
2023-08-19T03:31:26.719Z,29.00
2023-08-19T03:33:54.252Z,25.58
2023-08-19T03:36:23.338Z,26.45
2023-08-19T03:38:50.574Z,30.73
2023-08-19T03:41:17.533Z,28.88
2023-08-19T03:43:45.067Z,32.53
2023-08-19T03:46:12.188Z,29.50
2023-08-19T03:48:38.586Z,33.70
2023-08-19T03:51:06.593Z,30.48
2023-08-19T03:53:33.228Z,36.17
2023-08-19T03:56:01.153Z,35.07
2023-08-19T03:58:27.546Z,36.00
2023-08-19T04:00:53.955Z,35.80
2023-08-19T04:03:20.785Z,35.80
2023-08-19T04:05:47.414Z,35.60
2023-08-19T04:08:14.069Z,34.73
2023-08-19T04:10:41.999Z,33.85
2023-08-19T04:13:08.593Z,34.20
2023-08-19T04:15:36.481Z,31.10
2023-08-19T04:18:05.140Z,37.47
2023-08-19T04:20:38.009Z,32.43
2023-08-19T04:23:06.317Z,31.02
2023-08-19T04:25:33.085Z,33.42
2023-08-19T04:28:00.469Z,35.28
2023-08-19T04:30:27.066Z,31.73
2023-08-19T04:32:59.552Z,31.93
2023-08-19T04:35:27.462Z,33.75
2023-08-19T04:37:54.057Z,30.88
2023-08-19T04:40:20.747Z,29.90
2023-08-19T04:42:47.263Z,35.10
2023-08-19T04:45:14.127Z,31.90
2023-08-19T04:47:41.688Z,32.97
2023-08-19T04:50:09.754Z,35.22
2023-08-19T04:52:38.799Z,29.52
2023-08-19T04:55:05.770Z,31.55
2023-08-19T04:57:32.545Z,30.70
2023-08-19T05:00:01.543Z,31.42
2023-08-19T05:02:28.099Z,28.98
2023-08-19T05:04:56.145Z,28.05
2023-08-19T05:07:22.703Z,30.20
2023-08-19T05:09:49.374Z,26.57
2023-08-19T05:12:15.910Z,28.52
2023-08-19T05:14:44.083Z,28.10
2023-08-19T05:17:10.527Z,27.65
2023-08-19T05:19:38.136Z,28.35
2023-08-19T05:22:04.920Z,25.67
2023-08-19T05:24:31.966Z,24.92
2023-08-19T05:26:58.532Z,25.42
2023-08-19T05:29:25.366Z,23.05
2023-08-19T05:31:51.959Z,26.75
2023-08-19T05:34:20.202Z,25.37
2023-08-19T05:36:47.027Z,24.50
2023-08-19T05:39:13.864Z,26.75
2023-08-19T05:41:40.284Z,26.63
2023-08-19T05:44:07.257Z,24.13
2023-08-19T05:46:36.448Z,27.03
2023-08-19T05:49:03.249Z,26.88
2023-08-19T05:51:29.808Z,24.75
2023-08-19T05:54:00.042Z,21.98
2023-08-19T05:56:26.448Z,23.75
2023-08-19T05:58:55.125Z,22.53
2023-08-19T06:01:24.893Z,20.30
2023-08-19T06:03:52.665Z,23.80
2023-08-19T06:06:20.056Z,24.15
2023-08-19T06:08:46.497Z,23.30
2023-08-19T06:11:13.023Z,19.50
2023-08-19T06:13:39.618Z,23.20
2023-08-19T06:16:06.357Z,23.60
2023-08-19T06:18:34.564Z,22.25
2023-08-19T06:21:02.430Z,21.98
2023-08-19T06:23:29.811Z,22.17
2023-08-19T06:25:56.234Z,20.83
2023-08-19T06:28:22.933Z,18.35
2023-08-19T06:30:51.188Z,19.83
2023-08-19T06:33:18.640Z,18.90
2023-08-19T06:35:49.666Z,16.67
2023-08-19T06:38:20.508Z,17.65
2023-08-19T06:41:02.133Z,20.83
2023-08-19T06:43:28.820Z,19.90
2023-08-19T06:45:56.136Z,17.23
2023-08-19T06:48:24.175Z,17.93
2023-08-19T06:50:51.388Z,19.63
2023-08-19T06:53:18.158Z,21.23
2023-08-19T06:55:49.393Z,22.33
2023-08-19T06:58:20.774Z,23.50
2023-08-19T07:00:49.163Z,22.13
2023-08-19T07:03:19.574Z,20.42
2023-08-19T07:05:48.433Z,20.25
2023-08-19T07:08:16.101Z,16.15
2023-08-19T07:10:43.198Z,19.92
2023-08-19T07:13:09.841Z,17.83
2023-08-19T07:15:44.477Z,19.23
2023-08-19T07:18:13.463Z,20.10
2023-08-19T07:20:40.251Z,19.33
2023-08-19T07:23:09.855Z,16.45
2023-08-19T07:25:36.763Z,16.00
2023-08-19T07:28:04.148Z,18.77
2023-08-19T07:30:30.828Z,15.98
2023-08-19T07:32:57.746Z,18.52
2023-08-19T07:35:24.738Z,20.58
2023-08-19T07:37:52.902Z,14.00
2023-08-19T07:40:19.525Z,15.45
2023-08-19T07:42:46.831Z,15.90
2023-08-19T07:45:13.291Z,16.50
2023-08-19T07:47:39.839Z,15.88
2023-08-19T07:50:06.450Z,14.27
2023-08-19T07:52:33.112Z,14.98
2023-08-19T07:55:02.882Z,14.20
2023-08-19T07:57:29.558Z,13.90
2023-08-19T07:59:56.021Z,14.70
2023-08-19T08:02:22.627Z,18.73
2023-08-19T08:04:49.628Z,13.68
2023-08-19T08:07:17.593Z,15.00
2023-08-19T08:09:46.525Z,19.83
2023-08-19T08:12:13.141Z,16.85
2023-08-19T08:14:40.701Z,15.73
2023-08-19T08:17:07.095Z,18.42
2023-08-19T08:19:33.508Z,20.02
2023-08-19T08:21:59.949Z,23.92
2023-08-19T08:24:27.317Z,19.13
2023-08-19T08:26:57.625Z,20.10
2023-08-19T08:29:25.502Z,26.23
2023-08-19T08:31:52.100Z,19.20
2023-08-19T08:34:21.942Z,22.77
2023-08-19T08:36:49.785Z,18.73
2023-08-19T08:39:17.174Z,18.83
2023-08-19T08:41:45.410Z,23.33
2023-08-19T08:44:13.274Z,21.65
2023-08-19T08:46:40.289Z,19.90
2023-08-19T08:49:06.957Z,18.13
2023-08-19T08:51:33.498Z,16.23
2023-08-19T08:54:01.887Z,24.15
2023-08-19T08:56:28.457Z,22.85
2023-08-19T08:58:54.872Z,16.40
2023-08-19T09:01:21.642Z,15.32
2023-08-19T09:03:49.057Z,15.27
2023-08-19T09:06:17.148Z,16.25
2023-08-19T09:09:03.445Z,13.52
2023-08-19T09:11:35.008Z,13.57
2023-08-19T09:14:14.523Z,13.90
2023-08-19T09:16:41.106Z,26.93
2023-08-19T09:19:08.663Z,91.95
2023-08-19T09:21:36.548Z,20.88
2023-08-19T09:24:03.389Z,26.05
2023-08-19T09:26:30.097Z,21.45
2023-08-19T09:29:00.228Z,25.53
2023-08-19T09:31:28.314Z,25.58
2023-08-19T09:33:55.621Z,21.27
2023-08-19T09:36:26.406Z,41.08
2023-08-19T09:38:55.944Z,20.08
2023-08-19T09:41:33.698Z,16.00
2023-08-19T09:44:00.323Z,15.90
2023-08-19T09:46:42.666Z,19.63
2023-08-19T09:49:10.757Z,17.33
2023-08-19T09:51:37.935Z,13.38
2023-08-19T09:54:12.051Z,18.97
2023-08-19T09:56:38.797Z,11.27
2023-08-19T09:59:05.533Z,15.25
2023-08-19T10:01:34.580Z,9.25
2023-08-19T10:04:00.993Z,10.02
2023-08-19T10:06:32.366Z,7.07
2023-08-19T10:09:05.987Z,7.05
2023-08-19T10:11:34.504Z,7.45
2023-08-19T10:14:02.024Z,8.57
2023-08-19T10:16:29.423Z,9.13
2023-08-19T10:18:56.328Z,8.47
2023-08-19T10:21:24.105Z,8.60
2023-08-19T10:23:52.674Z,10.75
2023-08-19T10:26:23.314Z,8.35
2023-08-19T10:29:06.623Z,5.68
2023-08-19T10:31:34.381Z,7.60
2023-08-19T10:34:10.631Z,7.25
2023-08-19T10:36:40.996Z,12.60
2023-08-19T10:39:15.585Z,20.92
2023-08-19T10:41:47.080Z,15.95
2023-08-19T10:44:14.546Z,11.93
2023-08-19T10:46:44.146Z,9.98
2023-08-19T10:49:15.094Z,6.05
2023-08-19T10:51:55.325Z,8.07
2023-08-19T10:54:27.128Z,7.93
2023-08-19T10:57:04.545Z,17.37
2023-08-19T10:59:32.206Z,7.70
2023-08-19T11:01:58.780Z,7.82
2023-08-19T11:04:35.428Z,10.40
2023-08-19T11:07:03.976Z,8.57
2023-08-19T11:09:37.205Z,7.90
2023-08-19T11:12:04.336Z,12.63
2023-08-19T11:14:33.289Z,15.15
2023-08-19T11:17:00.082Z,7.50
2023-08-19T11:19:27.350Z,4.93
2023-08-19T11:21:54.247Z,4.53
2023-08-19T11:24:21.213Z,4.65
2023-08-19T11:26:50.055Z,5.38
2023-08-19T11:29:17.755Z,4.72
2023-08-19T11:31:44.573Z,5.28
2023-08-19T11:34:13.716Z,4.60
2023-08-19T11:36:41.883Z,4.72
2023-08-19T11:39:11.850Z,4.93
2023-08-19T11:41:40.419Z,5.40
2023-08-19T11:44:07.460Z,5.55
2023-08-19T11:46:37.576Z,5.17
2023-08-19T11:49:06.248Z,5.78
2023-08-19T11:51:32.785Z,4.20
2023-08-19T11:54:04.118Z,4.20
2023-08-19T11:56:32.090Z,4.97
2023-08-19T11:58:58.910Z,5.47
2023-08-19T12:01:29.001Z,4.90
2023-08-19T12:03:56.273Z,5.05
2023-08-19T12:06:24.608Z,6.22
2023-08-19T12:08:51.100Z,4.60
2023-08-19T12:11:24.692Z,5.27
2023-08-19T12:13:51.434Z,4.70
2023-08-19T12:16:20.016Z,5.00
2023-08-19T12:18:47.103Z,5.10
2023-08-19T12:21:16.087Z,4.72
2023-08-19T12:23:44.974Z,4.40
2023-08-19T12:26:13.505Z,4.80
2023-08-19T12:28:41.098Z,5.88
2023-08-19T12:31:07.550Z,4.75
2023-08-19T12:33:39.375Z,6.68
2023-08-19T12:36:17.704Z,3.90
2023-08-19T12:38:45.172Z,6.18
2023-08-19T12:41:13.289Z,5.68
2023-08-19T12:43:39.978Z,5.53
2023-08-19T12:46:06.564Z,5.00
2023-08-19T12:48:33.403Z,5.00
2023-08-19T12:50:59.993Z,5.07
2023-08-19T12:53:27.369Z,5.25
2023-08-19T12:55:53.902Z,5.80
2023-08-19T12:58:23.349Z,5.95
2023-08-19T13:00:49.877Z,4.43
2023-08-19T13:03:16.730Z,4.90
2023-08-19T13:05:43.827Z,6.50
2023-08-19T13:08:10.849Z,5.45
2023-08-19T13:10:37.453Z,5.50
2023-08-19T13:13:05.368Z,6.43
2023-08-19T13:15:33.478Z,6.82
2023-08-19T13:18:01.164Z,6.65
2023-08-19T13:20:28.563Z,9.88
2023-08-19T13:22:55.986Z,7.13
2023-08-19T13:25:24.039Z,7.00
2023-08-19T13:27:52.045Z,6.53
2023-08-19T13:30:20.227Z,6.72
2023-08-19T13:32:46.939Z,7.00
2023-08-19T13:35:13.654Z,6.25
2023-08-19T13:37:41.435Z,6.30
2023-08-19T13:40:09.595Z,5.68
2023-08-19T13:42:36.419Z,7.07
2023-08-19T13:45:05.670Z,6.60
2023-08-19T13:47:32.841Z,7.03
2023-08-19T13:50:00.058Z,7.67
2023-08-19T13:52:49.075Z,7.72
2023-08-19T13:55:17.488Z,6.72
2023-08-19T13:57:44.523Z,7.70
2023-08-19T14:00:17.100Z,8.68
2023-08-19T14:02:45.098Z,15.77
2023-08-19T14:05:15.503Z,8.40
2023-08-19T14:07:45.209Z,7.97
2023-08-19T14:10:13.085Z,7.50
2023-08-19T14:12:39.746Z,8.98
2023-08-19T14:15:06.790Z,9.80
2023-08-19T14:17:34.509Z,7.75
2023-08-19T14:20:02.348Z,9.43
2023-08-19T14:22:32.727Z,8.95
2023-08-19T14:25:00.300Z,13.88
2023-08-19T14:27:35.525Z,7.73
2023-08-19T14:30:02.594Z,10.13
2023-08-19T14:32:30.288Z,9.85
2023-08-19T14:34:56.959Z,8.35
2023-08-19T14:37:24.176Z,8.68
2023-08-19T14:39:50.782Z,9.10
2023-08-19T14:42:24.868Z,8.98
2023-08-19T14:44:52.916Z,13.07
2023-08-19T14:47:21.533Z,8.48
2023-08-19T14:49:52.373Z,8.35
2023-08-19T14:52:20.451Z,8.20
2023-08-19T14:54:47.576Z,8.48
2023-08-19T14:57:15.690Z,9.35
2023-08-19T14:59:42.590Z,8.65
2023-08-19T15:02:09.665Z,6.65
2023-08-19T15:04:37.160Z,8.73
2023-08-19T15:07:08.014Z,9.40
2023-08-19T15:09:34.524Z,8.38
2023-08-19T15:12:01.167Z,8.88
2023-08-19T15:14:27.621Z,8.07
2023-08-19T15:16:55.534Z,14.63
2023-08-19T15:19:23.560Z,10.38
2023-08-19T15:21:52.473Z,9.07
2023-08-19T15:24:19.303Z,9.15
2023-08-19T15:26:47.645Z,8.13
2023-08-19T15:29:14.929Z,10.50
2023-08-19T15:31:44.330Z,9.48
2023-08-19T15:34:11.615Z,10.73
2023-08-19T15:36:41.769Z,10.70
2023-08-19T15:39:08.865Z,10.45
2023-08-19T15:41:35.721Z,8.57
2023-08-19T15:44:03.019Z,10.77
2023-08-19T15:46:29.579Z,9.77
2023-08-19T15:48:56.448Z,9.45
2023-08-19T15:51:22.934Z,8.80
2023-08-19T15:53:50.499Z,8.40
2023-08-19T15:56:18.209Z,10.07
2023-08-19T15:58:45.558Z,8.52
2023-08-19T16:01:12.298Z,7.00
2023-08-19T16:03:39.160Z,7.00
2023-08-19T16:06:07.093Z,8.30
2023-08-19T16:08:34.109Z,6.90
2023-08-19T16:11:04.176Z,7.22
2023-08-19T16:13:35.854Z,10.25
2023-08-19T16:16:02.655Z,9.00
2023-08-19T16:18:34.691Z,8.77
2023-08-19T16:21:03.000Z,7.10
2023-08-19T16:23:29.717Z,7.20
2023-08-19T16:25:56.654Z,6.57
2023-08-19T16:28:23.412Z,8.52
2023-08-19T16:30:52.924Z,11.33
2023-08-19T16:33:22.942Z,6.93
2023-08-19T16:35:56.320Z,7.63
2023-08-19T16:38:23.066Z,6.50
2023-08-19T16:40:53.042Z,5.75
2023-08-19T16:43:21.483Z,7.53
2023-08-19T16:46:14.276Z,6.93
2023-08-19T16:48:42.473Z,5.57
2023-08-19T16:51:09.198Z,7.20
2023-08-19T16:53:37.793Z,8.43
2023-08-19T16:56:05.388Z,5.20
2023-08-19T16:58:31.883Z,6.53
2023-08-19T17:01:04.698Z,6.53
2023-08-19T17:03:33.386Z,6.40
2023-08-19T17:06:01.013Z,5.85
2023-08-19T17:08:28.055Z,5.47
2023-08-19T17:10:55.623Z,4.80
2023-08-19T17:13:22.400Z,4.82
2023-08-19T17:15:56.678Z,5.57
2023-08-19T17:18:26.727Z,5.65
2023-08-19T17:20:54.185Z,5.47
2023-08-19T17:23:21.533Z,5.03
2023-08-19T17:25:52.753Z,4.93
2023-08-19T17:28:19.542Z,4.72
2023-08-19T17:30:46.096Z,5.30
2023-08-19T17:33:13.640Z,4.90
2023-08-19T17:35:41.171Z,5.05
2023-08-19T17:38:08.102Z,6.00
2023-08-19T17:40:37.524Z,5.57
2023-08-19T17:43:04.953Z,5.68
2023-08-19T17:45:31.336Z,5.70
2023-08-19T17:47:58.255Z,6.10
2023-08-19T17:50:26.291Z,5.50
2023-08-19T17:52:53.075Z,4.30
2023-08-19T17:55:22.164Z,5.00
2023-08-19T17:57:50.248Z,7.00
2023-08-19T18:00:17.396Z,4.80
2023-08-19T18:02:43.978Z,4.05
2023-08-19T18:05:10.612Z,4.63
2023-08-19T18:07:37.528Z,5.22
2023-08-19T18:10:07.233Z,4.57
2023-08-19T18:12:34.124Z,4.30
2023-08-19T18:15:00.695Z,4.80
2023-08-19T18:17:27.374Z,4.95
2023-08-19T18:19:54.018Z,5.53
2023-08-19T18:22:21.689Z,5.27
2023-08-19T18:24:52.411Z,5.25
2023-08-19T18:27:20.900Z,5.05
2023-08-19T18:29:47.435Z,4.65
2023-08-19T18:32:13.989Z,5.28
2023-08-19T18:34:42.035Z,5.27
2023-08-19T18:37:08.818Z,5.40
2023-08-19T18:39:35.399Z,5.25
2023-08-19T18:42:01.945Z,5.28
2023-08-19T18:44:28.424Z,4.78
2023-08-19T18:46:55.112Z,5.50
2023-08-19T18:49:21.860Z,6.22
2023-08-19T18:51:56.500Z,6.90
2023-08-19T18:54:23.066Z,5.50
2023-08-19T18:56:51.147Z,6.05
2023-08-19T18:59:17.721Z,5.23
2023-08-19T19:01:44.225Z,5.55
2023-08-19T19:04:12.427Z,4.38
2023-08-19T19:06:39.042Z,5.43
2023-08-19T19:09:05.845Z,6.50
2023-08-19T19:11:32.569Z,7.23
2023-08-19T19:14:00.015Z,5.90
2023-08-19T19:16:27.024Z,5.18
2023-08-19T19:18:53.503Z,5.65
2023-08-19T19:21:22.885Z,4.80
2023-08-19T19:23:53.217Z,5.07
2023-08-19T19:26:20.153Z,7.85
2023-08-19T19:28:46.685Z,5.05
2023-08-19T19:31:13.406Z,3.90
2023-08-19T19:33:41.005Z,4.05
2023-08-19T19:36:07.470Z,4.30
2023-08-19T19:38:33.853Z,3.97
2023-08-19T19:41:01.286Z,4.28
2023-08-19T19:43:28.197Z,3.75
2023-08-19T19:45:54.719Z,3.83
2023-08-19T19:48:23.704Z,4.37
2023-08-19T19:50:50.319Z,4.18
2023-08-19T19:53:16.752Z,4.00
2023-08-19T19:55:44.956Z,5.00
2023-08-19T19:58:15.454Z,5.35
2023-08-19T20:00:41.940Z,4.67
2023-08-19T20:03:14.497Z,4.60
2023-08-19T20:05:41.823Z,4.55
2023-08-19T20:08:08.343Z,5.95
2023-08-19T20:10:35.400Z,4.50
2023-08-19T20:13:02.086Z,4.50
2023-08-19T20:15:30.839Z,4.45
2023-08-19T20:17:58.320Z,4.60
2023-08-19T20:20:24.775Z,5.22
2023-08-19T20:22:51.991Z,4.30
2023-08-19T20:25:21.625Z,3.97
2023-08-19T20:27:49.727Z,4.68
2023-08-19T20:30:16.246Z,4.93
2023-08-19T20:32:42.705Z,4.63
2023-08-19T20:35:09.370Z,4.65
2023-08-19T20:37:36.557Z,4.70
2023-08-19T20:40:04.373Z,4.30
2023-08-19T20:42:30.891Z,3.72
2023-08-19T20:44:59.486Z,4.22
2023-08-19T20:47:26.354Z,5.40
2023-08-19T20:49:53.230Z,4.73
2023-08-19T20:52:21.646Z,4.00
2023-08-19T20:54:48.012Z,4.32
2023-08-19T20:57:14.602Z,4.57
2023-08-19T20:59:41.068Z,4.75
2023-08-19T21:02:07.507Z,5.33
2023-08-19T21:04:34.150Z,6.55
2023-08-19T21:07:00.858Z,4.72
2023-08-19T21:09:29.658Z,4.55
2023-08-19T21:11:56.033Z,5.70
2023-08-19T21:14:23.927Z,4.40
2023-08-19T21:16:51.472Z,4.65
2023-08-19T21:19:19.304Z,4.35
2023-08-19T21:21:47.458Z,4.63
2023-08-19T21:24:16.476Z,4.57
2023-08-19T21:26:47.672Z,5.20
2023-08-19T21:29:14.093Z,4.43
2023-08-19T21:31:42.008Z,4.07
2023-08-19T21:34:11.020Z,4.65
2023-08-19T21:36:37.600Z,5.20
2023-08-19T21:39:04.139Z,4.60
2023-08-19T21:41:31.080Z,4.55
2023-08-19T21:43:57.817Z,3.85
2023-08-19T21:46:24.478Z,4.15
2023-08-19T21:48:51.544Z,4.80
2023-08-19T21:51:20.924Z,4.33
2023-08-19T21:53:47.466Z,4.50
2023-08-19T21:56:14.280Z,4.88
2023-08-19T21:58:41.016Z,3.80
2023-08-19T22:01:08.337Z,5.07
2023-08-19T22:03:34.923Z,4.00
2023-08-19T22:06:04.225Z,4.55
2023-08-19T22:08:31.124Z,5.07
2023-08-19T22:10:57.720Z,4.38
2023-08-19T22:13:24.239Z,5.05
2023-08-19T22:15:50.915Z,5.23
2023-08-19T22:18:18.826Z,4.40
2023-08-19T22:20:50.656Z,4.93
2023-08-19T22:23:20.905Z,4.53
2023-08-19T22:25:51.654Z,5.18
2023-08-19T22:28:18.326Z,5.17
2023-08-19T22:30:46.132Z,4.50
2023-08-19T22:33:12.929Z,5.97
2023-08-19T22:35:46.742Z,5.20
2023-08-19T22:38:14.711Z,5.57
2023-08-19T22:40:43.465Z,5.23
2023-08-19T22:43:10.453Z,5.57
2023-08-19T22:45:37.283Z,5.72
2023-08-19T22:48:04.226Z,5.68
2023-08-19T22:50:32.505Z,6.22
2023-08-19T22:52:59.245Z,6.23
2023-08-19T22:55:28.029Z,6.30
2023-08-19T22:57:54.758Z,4.47
2023-08-19T23:00:21.586Z,4.72
2023-08-19T23:02:48.776Z,4.38
2023-08-19T23:05:16.401Z,4.87
2023-08-19T23:07:43.475Z,5.35
2023-08-19T23:10:11.697Z,6.38
2023-08-19T23:12:38.281Z,5.13
2023-08-19T23:15:04.897Z,4.55
2023-08-19T23:17:33.012Z,6.03
2023-08-19T23:19:59.764Z,6.43
2023-08-19T23:22:27.696Z,5.60
2023-08-19T23:24:54.187Z,4.78
2023-08-19T23:27:20.792Z,6.60
2023-08-19T23:29:47.232Z,4.30
2023-08-19T23:32:14.444Z,5.80
2023-08-19T23:34:41.142Z,7.13
2023-08-19T23:37:07.631Z,7.22
2023-08-19T23:39:34.732Z,5.30
2023-08-19T23:42:01.140Z,6.30
2023-08-19T23:44:28.335Z,6.65
2023-08-19T23:46:55.985Z,4.80
2023-08-19T23:49:22.801Z,7.55
2023-08-19T23:51:53.685Z,7.07
2023-08-19T23:54:22.463Z,6.83
2023-08-19T23:56:49.412Z,4.88
2023-08-19T23:59:16.396Z,5.30
